M/T Arcadia — SY7849 — position and weather

sailwx.info

Track history (hours):
 
Tides and Currents Weather Stations Pressure Air Temp Water Temp Dewpoint Dewpoint Depression Visibility Wind Speed Wind Dir Waves Ship Positions

M/T Arcadia

Last reported at 2016-Dec-06 00:33 UTC. Time now 2016-Dec-08 20:16 UTC.
Position N 37°21' E 023°24'.

Length 76 m; draft 4.8 m.

Type: Tanker. MMSI: 240560000.

Date/timePositionNaut miles runAvg speedWind from/ knotsBaromVisibWave heightAir tempDewpointWater temp
2016-Dec-06 00:33N 37°21' E 023°24'8 7.7
2016-Dec-05 23:34N 37°25' E 023°32'6 6.4
2016-Dec-05 22:33N 37°31' E 023°32'7 7.4
2016-Dec-05 21:32N 37°37' E 023°26'7 6.8
2016-Dec-05 20:33N 37°40' E 023°19'7 7.4
2016-Dec-05 19:34N 37°46' E 023°14'8 7.8
2016-Dec-05 18:33N 37°53' E 023°08'3 0.1
2016-Dec-04 19:07N 37°55' E 023°05'0 0.0
2016-Dec-04 18:32N 37°55' E 023°05'0 0.0
2016-Dec-04 16:03N 37°55' E 023°05'0 0.0
2016-Dec-04 14:16N 37°55' E 023°05'1 0.9
2016-Dec-04 13:33N 37°55' E 023°06'0 0.0
2016-Dec-04 12:33N 37°55' E 023°06'6 6.4
2016-Dec-04 11:33N 37°50' E 023°11'8 7.8
2016-Dec-04 10:32N 37°43' E 023°16'8 7.6
2016-Dec-04 09:33N 37°39' E 023°24'8 7.9
2016-Dec-04 08:33N 37°33' E 023°31'  
2016-Nov-28 13:23N 37°20' E 023°22'6 7.5
2016-Nov-28 12:33N 37°23' E 023°29'8 6.8
2016-Nov-28 11:26N 37°30' E 023°33'6 7.4
2016-Nov-28 10:33N 37°35' E 023°28'7 7.3
2016-Nov-28 09:33N 37°39' E 023°21'7 7.1
2016-Nov-28 08:33N 37°45' E 023°15'8 8.2
2016-Nov-28 07:33N 37°52' E 023°09'5 0.3
2016-Nov-27 17:06N 37°55' E 023°05'0 0.3
2016-Nov-27 16:31N 37°55' E 023°05'0 0.4
2016-Nov-27 15:32N 37°55' E 023°06'0 0.0
2016-Nov-27 14:06N 37°55' E 023°06'0 0.0
2016-Nov-27 13:30N 37°55' E 023°06'0 0.0
2016-Nov-27 12:33N 37°55' E 023°06'0 0.1
2016-Nov-27 11:33N 37°55' E 023°06'0 0.0
2016-Nov-27 10:23N 37°55' E 023°06'0 0.0
2016-Nov-27 09:32N 37°55' E 023°06'0 0.1
2016-Nov-27 08:33N 37°55' E 023°06'0 0.0
2016-Nov-27 07:33N 37°55' E 023°06'0 0.1
2016-Nov-27 06:32N 37°55' E 023°06'0 0.0
2016-Nov-27 05:32N 37°55' E 023°06'0 0.0
2016-Nov-27 04:26N 37°55' E 023°06'0 0.0
2016-Nov-27 03:26N 37°55' E 023°06'0 0.0
2016-Nov-27 02:32N 37°55' E 023°06'0 0.0
2016-Nov-27 01:32N 37°55' E 023°06'0 0.0
2016-Nov-27 00:08N 37°55' E 023°06'0 0.0
2016-Nov-26 23:29N 37°55' E 023°06'0 0.0
2016-Nov-26 22:29N 37°55' E 023°06'0 0.0
2016-Nov-26 20:32N 37°55' E 023°06'0 0.0
2016-Nov-26 19:26N 37°55' E 023°06'0 0.0
2016-Nov-26 18:26N 37°55' E 023°06'0 0.0
2016-Nov-26 17:30N 37°55' E 023°06'0 0.0
2016-Nov-26 16:25N 37°55' E 023°06'0 0.0
2016-Nov-26 15:22N 37°55' E 023°06'0 0.0
2016-Nov-26 14:17N 37°55' E 023°06'0 0.0
2016-Nov-26 13:19N 37°55' E 023°06'0 0.0
2016-Nov-26 12:33N 37°55' E 023°06'0 0.0
2016-Nov-26 11:28N 37°55' E 023°06'0 0.1
2016-Nov-26 10:23N 37°55' E 023°06'6 6.7
2016-Nov-26 09:33N 37°50' E 023°10'8 8.0
2016-Nov-26 08:33N 37°44' E 023°16'8 7.8
2016-Nov-26 07:33N 37°39' E 023°24'8 8.2
2016-Nov-26 06:31N 37°33' E 023°31'8 8.1
2016-Nov-26 05:32N 37°26' E 023°36'  
Track history (hours):
 
Tides and Currents Weather Stations Pressure Air Temp Water Temp Dewpoint Dewpoint Depression Visibility Wind Speed Wind Dir Waves Ship Positions

M/T Arcadia

Last reported at 2016-Dec-06 00:33 UTC. Time now 2016-Dec-08 20:16 UTC.
Position N 37°21' E 023°24'.

Length 76 m; draft 4.8 m.

Type: Tanker. MMSI: 240560000.

Date/timePositionNaut miles runAvg speedWind from/ knotsBaromVisibWave heightAir tempDewpointWater temp
2016-Dec-06 00:33N 37°21' E 023°24'8 7.7
2016-Dec-05 23:34N 37°25' E 023°32'6 6.4
2016-Dec-05 22:33N 37°31' E 023°32'7 7.4
2016-Dec-05 21:32N 37°37' E 023°26'7 6.8
2016-Dec-05 20:33N 37°40' E 023°19'7 7.4
2016-Dec-05 19:34N 37°46' E 023°14'8 7.8
2016-Dec-05 18:33N 37°53' E 023°08'3 0.1
2016-Dec-04 19:07N 37°55' E 023°05'0 0.0
2016-Dec-04 18:32N 37°55' E 023°05'0 0.0
2016-Dec-04 16:03N 37°55' E 023°05'0 0.0
2016-Dec-04 14:16N 37°55' E 023°05'1 0.9
2016-Dec-04 13:33N 37°55' E 023°06'0 0.0
2016-Dec-04 12:33N 37°55' E 023°06'6 6.4
2016-Dec-04 11:33N 37°50' E 023°11'8 7.8
2016-Dec-04 10:32N 37°43' E 023°16'8 7.6
2016-Dec-04 09:33N 37°39' E 023°24'8 7.9
2016-Dec-04 08:33N 37°33' E 023°31'  
2016-Nov-28 13:23N 37°20' E 023°22'6 7.5
2016-Nov-28 12:33N 37°23' E 023°29'8 6.8
2016-Nov-28 11:26N 37°30' E 023°33'6 7.4
2016-Nov-28 10:33N 37°35' E 023°28'7 7.3
2016-Nov-28 09:33N 37°39' E 023°21'7 7.1
2016-Nov-28 08:33N 37°45' E 023°15'8 8.2
2016-Nov-28 07:33N 37°52' E 023°09'5 0.3
2016-Nov-27 17:06N 37°55' E 023°05'0 0.3
2016-Nov-27 16:31N 37°55' E 023°05'0 0.4
2016-Nov-27 15:32N 37°55' E 023°06'0 0.0
2016-Nov-27 14:06N 37°55' E 023°06'0 0.0
2016-Nov-27 13:30N 37°55' E 023°06'0 0.0
2016-Nov-27 12:33N 37°55' E 023°06'0 0.1
2016-Nov-27 11:33N 37°55' E 023°06'0 0.0
2016-Nov-27 10:23N 37°55' E 023°06'0 0.0
2016-Nov-27 09:32N 37°55' E 023°06'0 0.1
2016-Nov-27 08:33N 37°55' E 023°06'0 0.0
2016-Nov-27 07:33N 37°55' E 023°06'0 0.1
2016-Nov-27 06:32N 37°55' E 023°06'0 0.0
2016-Nov-27 05:32N 37°55' E 023°06'0 0.0
2016-Nov-27 04:26N 37°55' E 023°06'0 0.0
2016-Nov-27 03:26N 37°55' E 023°06'0 0.0
2016-Nov-27 02:32N 37°55' E 023°06'0 0.0
2016-Nov-27 01:32N 37°55' E 023°06'0 0.0
2016-Nov-27 00:08N 37°55' E 023°06'0 0.0
2016-Nov-26 23:29N 37°55' E 023°06'0 0.0
2016-Nov-26 22:29N 37°55' E 023°06'0 0.0
2016-Nov-26 20:32N 37°55' E 023°06'0 0.0
2016-Nov-26 19:26N 37°55' E 023°06'0 0.0
2016-Nov-26 18:26N 37°55' E 023°06'0 0.0
2016-Nov-26 17:30N 37°55' E 023°06'0 0.0
2016-Nov-26 16:25N 37°55' E 023°06'0 0.0
2016-Nov-26 15:22N 37°55' E 023°06'0 0.0
2016-Nov-26 14:17N 37°55' E 023°06'0 0.0
2016-Nov-26 13:19N 37°55' E 023°06'0 0.0
2016-Nov-26 12:33N 37°55' E 023°06'0 0.0
2016-Nov-26 11:28N 37°55' E 023°06'0 0.1
2016-Nov-26 10:23N 37°55' E 023°06'6 6.7
2016-Nov-26 09:33N 37°50' E 023°10'8 8.0
2016-Nov-26 08:33N 37°44' E 023°16'8 7.8
2016-Nov-26 07:33N 37°39' E 023°24'8 8.2
2016-Nov-26 06:31N 37°33' E 023°31'8 8.1
2016-Nov-26 05:32N 37°26' E 023°36'  

Dump ship's entire track history